Time;durP1;ratioP1;P1;durP2;ratioP2;P2;SDS_P1;SDS_P2;PMS_P1;PMS_P2;Temp;Humidity;BMP_temperature;BMP_pressure;BME280_temperature;BME280_humidity;BME280_pressure;Samples;Min_cycle;Max_cycle;Signal;HPM_P1;HPM_P2
2022/02/12 00:01:18;;;;;;;10.27;8.33;;;;;;;0.96;100.00;151614.84;5081996;28;20451;-76
2022/02/12 00:03:53;;;;;;;13.80;9.40;;;;;;;0.96;100.00;151616.16;5105182;28;20492;-76
2022/02/12 00:06:29;;;;;;;16.90;11.93;;;;;;;1.15;100.00;151663.66;5091148;28;20447;-76
2022/02/12 00:09:06;;;;;;;23.07;12.67;;;;;;;0.91;100.00;151602.00;5107990;28;20532;-76
2022/02/12 00:11:42;;;;;;;27.93;14.70;;;;;;;0.69;100.00;151546.78;5109851;28;20470;-76
2022/02/12 00:14:17;;;;;;;21.20;13.70;;;;;;;0.60;100.00;151523.72;5106375;28;20544;-76
2022/02/12 00:16:53;;;;;;;24.87;15.40;;;;;;;0.58;100.00;151519.81;5091893;28;20453;-76
2022/02/12 00:19:28;;;;;;;20.67;14.73;;;;;;;0.51;100.00;151500.56;5107427;28;20457;-76
2022/02/12 00:22:04;;;;;;;19.97;14.67;;;;;;;0.50;100.00;151498.03;5099756;28;20442;-76
2022/02/12 00:24:41;;;;;;;17.70;12.17;;;;;;;0.50;100.00;151498.03;5106972;28;20452;-76
2022/02/12 00:27:17;;;;;;;20.83;13.70;;;;;;;0.44;100.00;151482.63;5110490;28;20465;-76
2022/02/12 00:29:53;;;;;;;15.90;13.27;;;;;;;0.40;100.00;151473.63;5107419;28;20449;-76
2022/02/12 00:32:28;;;;;;;19.50;13.77;;;;;;;0.38;100.00;151467.19;5104095;28;20471;-76
2022/02/12 00:35:05;;;;;;;16.17;12.63;;;;;;;0.37;100.00;151464.66;5105236;28;20454;-76
2022/02/12 00:37:40;;;;;;;18.43;13.67;;;;;;;0.32;100.00;151453.06;5107144;28;20465;-75
2022/02/12 00:40:18;;;;;;;20.70;14.17;;;;;;;0.29;100.00;151444.13;5108980;28;20915;-76
2022/02/12 00:42:54;;;;;;;21.27;13.40;;;;;;;0.31;100.00;151449.25;5109945;27;20460;-76
2022/02/12 00:45:29;;;;;;;15.73;11.60;;;;;;;0.38;100.00;151467.19;5093319;28;20566;-76
2022/02/12 00:48:05;;;;;;;21.50;13.90;;;;;;;0.31;100.00;151450.53;5086409;28;20455;-75
2022/02/12 00:50:41;;;;;;;20.20;12.87;;;;;;;0.27;100.00;151440.25;5100065;28;20557;-75
2022/02/12 00:53:16;;;;;;;18.07;11.87;;;;;;;0.26;100.00;151437.72;5107322;28;20504;-76
2022/02/12 00:55:54;;;;;;;13.47;12.00;;;;;;;0.23;100.00;151428.72;5108027;28;20448;-75
2022/02/12 00:58:29;;;;;;;15.50;11.70;;;;;;;0.21;100.00;151423.59;5107023;28;20457;-75
2022/02/12 01:01:05;;;;;;;16.93;12.03;;;;;;;0.16;100.00;151412.00;5106438;28;20471;-76
2022/02/12 01:03:41;;;;;;;18.33;12.73;;;;;;;0.16;100.00;151410.75;5083052;28;20453;-75
2022/02/12 01:06:16;;;;;;;16.53;12.03;;;;;;;0.14;100.00;151406.88;5099743;28;20791;-75
2022/02/12 01:08:52;;;;;;;16.23;12.37;;;;;;;0.11;100.00;151399.16;5104589;28;20450;-75
2022/02/12 01:11:29;;;;;;;17.23;12.40;;;;;;;0.09;100.00;151394.06;5089656;28;20477;-76
2022/02/12 01:14:04;;;;;;;17.30;13.00;;;;;;;0.09;100.00;151392.75;5109067;28;20780;-76
2022/02/12 01:16:40;;;;;;;18.30;12.37;;;;;;;0.00;100.00;151372.22;5102566;28;20440;-75
2022/02/12 01:19:16;;;;;;;17.87;11.50;;;;;;;-0.06;100.00;151356.88;5099157;28;20457;-76
2022/02/12 01:21:52;;;;;;;17.20;12.30;;;;;;;-0.07;100.00;151354.28;5104120;27;20768;-75
2022/02/12 01:24:28;;;;;;;17.30;12.50;;;;;;;-0.09;100.00;151349.16;5092706;28;20443;-75
2022/02/12 01:27:05;;;;;;;16.80;11.80;;;;;;;-0.09;100.00;151349.16;5105677;28;20482;-76
2022/02/12 01:29:41;;;;;;;17.67;12.30;;;;;;;-0.07;100.00;151354.28;5103801;28;20446;-76
2022/02/12 01:32:17;;;;;;;15.50;11.73;;;;;;;-0.10;100.00;151346.56;5102098;28;20479;-76
2022/02/12 01:34:52;;;;;;;15.47;10.93;;;;;;;-0.11;100.00;151342.75;5104147;28;20445;-76
2022/02/12 01:37:28;;;;;;;15.97;12.53;;;;;;;-0.14;100.00;151336.34;5105941;28;20436;-76
2022/02/12 01:40:05;;;;;;;18.50;11.20;;;;;;;-0.18;100.00;151326.03;5091138;28;20459;-76
2022/02/12 01:42:42;;;;;;;18.00;13.03;;;;;;;-0.18;100.00;151326.03;5105646;27;20475;-76
2022/02/12 01:45:17;;;;;;;15.40;11.17;;;;;;;-0.14;100.00;151335.03;5099613;28;20553;-76
2022/02/12 01:47:53;;;;;;;19.10;11.20;;;;;;;-0.18;100.00;151326.03;5099483;28;20447;-76
2022/02/12 01:50:28;;;;;;;12.93;10.53;;;;;;;-0.15;100.00;151332.47;5091666;28;20457;-76
2022/02/12 01:53:04;;;;;;;14.37;10.87;;;;;;;-0.17;100.00;151328.63;5085060;28;20843;-75
2022/02/12 01:55:40;;;;;;;15.10;10.50;;;;;;;-0.19;100.00;151323.50;5107333;28;20473;-76
2022/02/12 01:58:17;;;;;;;12.00;8.93;;;;;;;-0.16;100.00;151329.91;5087477;28;20958;-76
2022/02/12 02:00:52;;;;;;;15.40;11.23;;;;;;;-0.20;100.00;151320.91;5119367;27;20444;-76
2022/02/12 02:03:28;;;;;;;12.50;11.00;;;;;;;-0.20;100.00;151319.63;5102386;28;20432;-76
2022/02/12 02:06:04;;;;;;;14.97;9.57;;;;;;;-0.22;100.00;151315.81;5087422;28;20461;-76
2022/02/12 02:08:39;;;;;;;11.37;8.53;;;;;;;-0.25;100.00;151308.09;5104350;28;20446;-76
2022/02/12 02:11:16;;;;;;;10.10;8.23;;;;;;;-0.34;100.00;151284.97;5122357;27;20436;-76
2022/02/12 02:13:53;;;;;;;12.70;9.47;;;;;;;-0.29;100.00;151296.56;5107347;28;20478;-76
2022/02/12 02:16:29;;;;;;;11.53;8.30;;;;;;;-0.22;100.00;151314.50;5106741;28;20432;-76
2022/02/12 02:19:05;;;;;;;10.13;8.13;;;;;;;-0.22;100.00;151315.81;5089665;28;20451;-76
2022/02/12 02:21:42;;;;;;;11.77;8.40;;;;;;;-0.27;100.00;151302.97;5103872;28;20922;-76
2022/02/12 02:24:19;;;;;;;10.30;8.50;;;;;;;-0.28;100.00;151300.41;5102945;28;20789;-76
2022/02/12 02:27:07;;;;;;;14.43;8.80;;;;;;;-0.22;100.00;151314.50;5104467;28;20463;-76
2022/02/12 02:29:43;;;;;;;14.70;10.07;;;;;;;-0.17;100.00;151327.34;5104175;28;20457;-76
2022/02/12 02:32:20;;;;;;;12.70;9.90;;;;;;;-0.20;100.00;151320.91;5095171;28;20456;-76
2022/02/12 02:34:56;;;;;;;12.87;8.77;;;;;;;-0.23;100.00;151313.22;5098732;28;20448;-76
2022/02/12 02:37:31;;;;;;;10.10;8.30;;;;;;;-0.27;100.00;151302.97;5105534;28;20463;-76
2022/02/12 02:40:13;;;;;;;16.90;9.73;;;;;;;-0.39;100.00;151270.88;5102154;28;20445;-76
2022/02/12 02:42:50;;;;;;;11.27;8.13;;;;;;;-0.47;100.00;151251.63;5105615;28;20469;-76
2022/02/12 02:45:26;;;;;;;13.10;9.37;;;;;;;-0.46;100.00;151252.94;5105044;28;20446;-76
2022/02/12 02:48:04;;;;;;;15.20;9.80;;;;;;;-0.47;100.00;151251.63;5090768;28;20461;-76
2022/02/12 02:56:28;;;;;;;9.60;7.10;;;;;;;-0.58;100.00;151223.41;5104217;28;20901;-76
2022/02/12 02:59:04;;;;;;;10.77;7.70;;;;;;;-0.57;100.00;151224.69;5105936;28;20464;-76
2022/02/12 03:01:39;;;;;;;8.43;6.77;;;;;;;-0.58;100.00;151223.41;5089298;28;20446;-76
2022/02/12 03:04:15;;;;;;;11.60;7.23;;;;;;;-0.50;100.00;151243.94;5106114;28;20451;-76
2022/02/12 03:06:51;;;;;;;11.77;7.17;;;;;;;-0.35;100.00;151281.16;5106164;28;20440;-76
2022/02/12 03:09:27;;;;;;;9.60;7.70;;;;;;;-0.33;100.00;151287.56;5100840;28;20858;-76
2022/02/12 03:12:04;;;;;;;9.83;7.40;;;;;;;-0.43;100.00;151260.63;5105609;28;20471;-76
2022/02/12 03:14:40;;;;;;;9.27;7.00;;;;;;;-0.52;100.00;151238.81;5104967;28;20449;-76
2022/02/12 03:17:15;;;;;;;11.03;7.70;;;;;;;-0.62;100.00;151213.19;5104948;28;20445;-76
2022/02/12 03:19:50;;;;;;;11.70;8.47;;;;;;;-0.69;100.00;151196.47;5096397;28;20494;-76
2022/02/12 03:22:26;;;;;;;12.30;8.60;;;;;;;-0.70;100.00;151192.66;5099202;28;20725;-76
2022/02/12 03:25:02;;;;;;;10.60;7.43;;;;;;;-0.75;100.00;151181.13;5104545;28;20464;-76
2022/02/12 03:27:39;;;;;;;10.97;8.50;;;;;;;-0.79;100.00;151170.84;5098281;28;20785;-76
2022/02/12 03:30:14;;;;;;;8.53;6.57;;;;;;;-0.83;100.00;151159.31;5096037;28;20547;-76
2022/02/12 03:32:50;;;;;;;12.30;7.03;;;;;;;-0.86;100.00;151151.63;5100393;28;20463;-76
2022/02/12 03:35:26;;;;;;;11.03;7.90;;;;;;;-0.81;100.00;151164.44;5088927;28;20463;-76
2022/02/12 03:38:10;;;;;;;10.90;7.30;;;;;;;-0.81;100.00;151164.44;5103795;28;20947;-76
2022/02/12 03:40:47;;;;;;;10.93;7.57;;;;;;;-0.72;100.00;151187.53;5085891;28;20487;-76
2022/02/12 03:43:24;;;;;;;9.60;7.20;;;;;;;-0.71;100.00;151190.06;5104821;28;20459;-76
2022/02/12 03:46:00;;;;;;;13.60;8.30;;;;;;;-0.66;100.00;151202.88;5105439;28;20455;-76
2022/02/12 03:48:36;;;;;;;16.60;9.30;;;;;;;-0.71;100.00;151190.06;5109847;28;20544;-76
2022/02/12 03:51:11;;;;;;;16.53;9.03;;;;;;;-0.78;100.00;151172.13;5089140;28;20444;-76
2022/02/12 03:53:47;;;;;;;10.90;8.57;;;;;;;-0.78;100.00;151172.13;5110690;28;20460;-76
2022/02/12 03:56:23;;;;;;;13.07;9.60;;;;;;;-0.77;100.00;151174.72;5108425;28;20428;-76
2022/02/12 03:58:59;;;;;;;14.80;8.03;;;;;;;-0.69;100.00;151196.47;5084591;28;20542;-76
2022/02/12 04:01:35;;;;;;;11.30;7.23;;;;;;;-0.67;100.00;151200.34;5093167;28;20886;-76
2022/02/12 04:04:11;;;;;;;13.27;8.50;;;;;;;-0.75;100.00;151181.13;5106370;27;20556;-75
2022/02/12 04:06:46;;;;;;;9.50;7.30;;;;;;;-0.79;100.00;151170.84;5093753;28;20443;-75
2022/02/12 04:09:22;;;;;;;13.40;8.60;;;;;;;-0.80;100.00;151167.00;5088338;28;20441;-75
2022/02/12 04:11:58;;;;;;;11.07;8.37;;;;;;;-0.86;100.00;151152.91;5107981;28;20439;-75
2022/02/12 04:14:35;;;;;;;10.77;7.17;;;;;;;-0.76;100.00;151178.53;5105107;28;20442;-75
2022/02/12 04:17:10;;;;;;;14.23;8.00;;;;;;;-0.68;100.00;151197.78;5107741;28;20772;-75
2022/02/12 04:19:46;;;;;;;12.03;8.40;;;;;;;-0.60;100.00;151218.28;5091719;28;20457;-75
2022/02/12 04:22:22;;;;;;;12.13;7.57;;;;;;;-0.66;100.00;151204.19;5100809;28;20447;-75
2022/02/12 04:24:57;;;;;;;11.80;7.83;;;;;;;-0.73;100.00;151184.94;5104738;28;20488;-75
2022/02/12 04:27:33;;;;;;;10.90;8.20;;;;;;;-0.71;100.00;151191.34;5108823;28;20441;-75
2022/02/12 04:30:11;;;;;;;13.40;8.03;;;;;;;-0.71;100.00;151190.06;5101427;28;20804;-75
2022/02/12 04:32:47;;;;;;;11.83;7.93;;;;;;;-0.74;100.00;151182.38;5085959;28;20463;-75
2022/02/12 04:35:23;;;;;;;12.10;7.80;;;;;;;-0.67;100.00;151201.66;5087238;28;20468;-75
2022/02/12 04:37:58;;;;;;;9.73;7.80;;;;;;;-0.78;100.00;151173.44;5102482;28;20440;-75
2022/02/12 04:40:36;;;;;;;11.27;7.70;;;;;;;-0.76;100.00;151177.25;5107507;28;20443;-75
2022/02/12 04:43:13;;;;;;;15.90;7.60;;;;;;;-0.73;100.00;151184.94;5108808;28;20562;-75
2022/02/12 04:45:50;;;;;;;10.50;7.57;;;;;;;-0.66;100.00;151202.88;5086306;28;20451;-75
2022/02/12 04:48:25;;;;;;;12.30;8.00;;;;;;;-0.62;100.00;151213.19;5093459;28;20445;-77
2022/02/12 04:51:01;;;;;;;11.23;7.40;;;;;;;-0.63;100.00;151210.59;5105218;28;20452;-77
2022/02/12 04:53:37;;;;;;;12.97;7.10;;;;;;;-0.71;100.00;151190.06;5106761;28;20459;-77
2022/02/12 04:56:15;;;;;;;11.67;6.80;;;;;;;-0.70;100.00;151192.66;5093061;28;20480;-76
2022/02/12 04:58:50;;;;;;;9.63;5.90;;;;;;;-0.52;100.00;151237.53;5104430;28;20547;-76
2022/02/12 05:01:27;;;;;;;13.20;6.27;;;;;;;-0.40;100.00;151269.63;5089635;28;20450;-76
2022/02/12 05:04:03;;;;;;;11.97;6.70;;;;;;;-0.50;100.00;151242.69;5106295;28;20437;-77
2022/02/12 05:06:39;;;;;;;10.67;6.27;;;;;;;-0.43;100.00;151261.94;5092190;28;20464;-76
2022/02/12 05:09:15;;;;;;;10.40;5.50;;;;;;;-0.47;100.00;151250.34;5102569;28;20466;-76
2022/02/12 05:11:52;;;;;;;11.73;6.43;;;;;;;-0.49;100.00;151246.53;5085962;28;20997;-76
2022/02/12 05:14:31;;;;;;;11.10;7.57;;;;;;;-0.55;100.00;151231.13;5106443;28;20863;-76
2022/02/12 05:17:08;;;;;;;9.50;7.07;;;;;;;-0.65;100.00;151206.75;5105254;28;20453;-76
2022/02/12 05:19:44;;;;;;;9.90;6.07;;;;;;;-0.75;100.00;151179.84;5086998;28;20456;-76
2022/02/12 05:22:20;;;;;;;11.50;7.10;;;;;;;-0.76;100.00;151178.53;5099031;28;20843;-76
2022/02/12 05:24:55;;;;;;;9.87;6.10;;;;;;;-0.75;100.00;151179.84;5088151;28;20456;-76
2022/02/12 05:27:32;;;;;;;10.50;6.10;;;;;;;-0.82;100.00;151161.91;5104582;28;20947;-76
2022/02/12 05:30:09;;;;;;;9.20;6.40;;;;;;;-0.82;100.00;151161.91;5091802;28;20539;-76
2022/02/12 05:32:46;;;;;;;13.20;7.50;;;;;;;-0.74;100.00;151182.38;5104332;28;20928;-76
2022/02/12 05:35:21;;;;;;;10.40;6.67;;;;;;;-0.72;100.00;151188.81;5103366;28;20456;-76
2022/02/12 05:37:57;;;;;;;11.87;7.20;;;;;;;-0.73;100.00;151184.94;5089983;28;20447;-76
2022/02/12 05:40:33;;;;;;;13.07;7.73;;;;;;;-0.73;100.00;151184.94;5107575;28;20447;-77
2022/02/12 05:43:09;;;;;;;10.90;6.67;;;;;;;-0.68;100.00;151197.78;5086432;28;20877;-76
2022/02/12 05:45:44;;;;;;;11.63;6.93;;;;;;;-0.66;100.00;151202.88;5091567;28;20653;-77
2022/02/12 05:48:21;;;;;;;10.80;5.90;;;;;;;-0.66;100.00;151202.88;5105336;28;20447;-76
2022/02/12 05:50:57;;;;;;;13.90;8.10;;;;;;;-0.76;100.00;151178.53;5105626;28;20922;-77
2022/02/12 05:53:33;;;;;;;9.57;6.60;;;;;;;-0.78;100.00;151173.44;5096797;28;20448;-76
2022/02/12 05:56:08;;;;;;;9.17;6.17;;;;;;;-0.79;100.00;151170.84;5104285;28;20455;-76
2022/02/12 05:58:44;;;;;;;8.63;5.57;;;;;;;-0.80;100.00;151167.00;5120032;27;20446;-76
2022/02/12 06:01:19;;;;;;;11.30;5.00;;;;;;;-0.76;100.00;151178.53;5091969;28;20454;-76
2022/02/12 06:03:57;;;;;;;7.17;4.97;;;;;;;-0.70;100.00;151192.66;5087669;28;20437;-76
2022/02/12 06:06:32;;;;;;;12.67;6.00;;;;;;;-0.78;100.00;151172.13;5092304;28;20440;-76
2022/02/12 06:09:08;;;;;;;7.03;5.30;;;;;;;-0.81;100.00;151164.44;5101686;28;20467;-76
2022/02/12 06:11:43;;;;;;;9.10;5.60;;;;;;;-0.80;100.00;151167.00;5105705;28;20784;-76
2022/02/12 06:14:19;;;;;;;9.83;5.73;;;;;;;-0.84;100.00;151156.72;5085786;28;20488;-76
2022/02/12 06:16:57;;;;;;;9.33;5.90;;;;;;;-0.89;100.00;151143.91;5105274;28;20436;-76
2022/02/12 06:19:34;;;;;;;8.50;5.83;;;;;;;-0.90;100.00;151141.38;5104679;28;20440;-76
2022/02/12 06:22:10;;;;;;;21.10;9.27;;;;;;;-0.91;100.00;151140.09;5103604;28;20459;-76
2022/02/12 06:24:46;;;;;;;23.97;10.20;;;;;;;-0.85;100.00;151154.19;5105328;28;20436;-76
2022/02/12 06:27:21;;;;;;;14.20;9.73;;;;;;;-0.85;100.00;151154.19;5084802;28;20461;-76
2022/02/12 06:29:57;;;;;;;15.13;9.20;;;;;;;-0.84;100.00;151156.72;5103848;28;20452;-77
2022/02/12 06:32:33;;;;;;;11.90;7.30;;;;;;;-0.93;100.00;151134.97;5084928;28;20506;-76
2022/02/12 06:35:10;;;;;;;18.90;8.20;;;;;;;-0.91;100.00;151140.09;5105425;28;20476;-76
2022/02/12 06:37:45;;;;;;;10.70;6.63;;;;;;;-0.95;100.00;151128.50;5089379;28;20529;-76
2022/02/12 06:40:21;;;;;;;12.53;7.10;;;;;;;-0.95;100.00;151128.50;5105438;28;20447;-76
2022/02/12 06:42:57;;;;;;;9.20;6.17;;;;;;;-0.90;100.00;151141.38;5103543;28;20470;-76
2022/02/12 06:45:34;;;;;;;11.63;5.93;;;;;;;-0.86;100.00;151151.63;5104765;28;20440;-76
2022/02/12 06:48:09;;;;;;;9.20;6.43;;;;;;;-0.85;100.00;151154.19;5102682;28;20788;-76
2022/02/12 06:50:46;;;;;;;10.37;5.63;;;;;;;-0.84;100.00;151156.72;5089784;28;20534;-76
2022/02/12 06:53:22;;;;;;;9.20;6.43;;;;;;;-0.79;100.00;151169.56;5107478;28;20469;-76
2022/02/12 06:55:58;;;;;;;11.67;6.17;;;;;;;-0.78;100.00;151172.13;5121896;27;20493;-76
2022/02/12 06:58:35;;;;;;;12.23;7.40;;;;;;;-0.76;100.00;151177.25;5106837;28;20530;-76
2022/02/12 07:01:10;;;;;;;13.43;6.07;;;;;;;-0.68;100.00;151199.06;5101902;28;20452;-76
2022/02/12 07:03:46;;;;;;;10.93;6.43;;;;;;;-0.54;100.00;151232.41;5087262;28;20447;-76
2022/02/12 07:06:24;;;;;;;11.63;6.03;;;;;;;-0.40;100.00;151269.63;5088600;28;20579;-76
2022/02/12 07:09:00;;;;;;;8.90;6.73;;;;;;;-0.27;100.00;151302.97;5087819;28;20441;-76
2022/02/12 07:11:36;;;;;;;9.47;6.47;;;;;;;-0.12;100.00;151340.16;5103054;28;20776;-76
2022/02/12 07:14:12;;;;;;;11.87;6.37;;;;;;;0.11;100.00;151397.94;5101997;28;20474;-76
2022/02/12 07:16:47;;;;;;;11.00;6.20;;;;;;;0.29;99.90;151444.13;5105497;28;20481;-74
2022/02/12 07:19:23;;;;;;;9.13;6.67;;;;;;;0.52;99.21;151504.47;5108666;28;20453;-77
2022/02/12 07:22:00;;;;;;;7.03;5.60;;;;;;;0.80;98.21;151575.03;5104337;28;20436;-76
2022/02/12 07:24:35;;;;;;;7.33;4.80;;;;;;;0.96;97.59;151616.16;5093377;28;20540;-76
2022/02/12 07:27:11;;;;;;;7.20;4.87;;;;;;;1.10;95.72;151650.84;5108218;28;20481;-76
2022/02/12 07:29:47;;;;;;;7.10;5.83;;;;;;;1.26;94.40;151691.94;5092190;28;20807;-76
2022/02/12 07:32:22;;;;;;;7.43;5.23;;;;;;;1.34;93.61;151711.19;5105002;27;20891;-76
2022/02/12 07:34:58;;;;;;;11.17;5.63;;;;;;;1.44;93.73;151736.88;5108164;28;20473;-76
2022/02/12 07:37:35;;;;;;;10.23;5.77;;;;;;;1.49;92.92;151749.72;5102919;28;20450;-76
2022/02/12 07:40:12;;;;;;;9.93;6.30;;;;;;;1.59;92.33;151776.72;5105398;28;20454;-76
2022/02/12 07:42:48;;;;;;;8.47;5.77;;;;;;;1.48;91.34;151748.50;5096409;28;20471;-76
2022/02/12 07:45:24;;;;;;;10.10;6.73;;;;;;;1.77;91.95;151821.72;5100008;28;21032;-76
2022/02/12 07:48:00;;;;;;;9.40;5.93;;;;;;;1.89;90.87;151851.25;5106369;28;20521;-76
2022/02/12 07:50:35;;;;;;;13.93;6.60;;;;;;;2.05;90.18;151893.69;5083903;28;20451;-74
2022/02/12 07:53:14;;;;;;;8.60;6.00;;;;;;;2.26;89.05;151947.69;5106843;28;20455;-76
2022/02/12 07:55:50;;;;;;;9.47;5.70;;;;;;;2.20;88.32;151932.25;5105590;28;20448;-76
2022/02/12 07:58:25;;;;;;;11.20;6.23;;;;;;;2.17;88.47;151924.53;5088175;28;20451;-76
2022/02/12 08:01:03;;;;;;;8.33;4.77;;;;;;;2.04;90.40;151891.09;5084622;28;20453;-76
2022/02/12 08:03:38;;;;;;;8.57;5.20;;;;;;;1.93;89.77;151862.88;5103377;28;20488;-76
2022/02/12 08:09:08;;;;;;;8.53;5.47;;;;;;;2.18;90.73;151927.13;5102830;28;20444;-76
2022/02/12 08:11:48;;;;;;;6.27;4.20;;;;;;;2.34;89.46;151968.25;5101868;28;20538;-76
2022/02/12 08:14:24;;;;;;;7.23;5.53;;;;;;;2.36;89.26;151973.41;5102507;28;20805;-76
2022/02/12 08:16:59;;;;;;;7.07;5.30;;;;;;;2.48;89.29;152003.00;5106740;28;20435;-76
2022/02/12 08:19:35;;;;;;;7.93;4.97;;;;;;;2.43;89.90;151990.13;5105923;28;20447;-76
2022/02/12 08:22:11;;;;;;;9.37;5.13;;;;;;;2.59;87.27;152030.00;5106699;28;20529;-76
2022/02/12 08:24:48;;;;;;;7.57;5.20;;;;;;;2.55;88.41;152019.69;5095356;28;20452;-76
2022/02/12 08:27:28;;;;;;;7.40;5.27;;;;;;;2.40;87.84;151983.72;5103378;28;20425;-76
2022/02/12 08:30:05;;;;;;;5.93;4.70;;;;;;;2.49;85.68;152005.53;5084995;28;20970;-76
2022/02/12 08:32:42;;;;;;;7.70;5.43;;;;;;;2.27;87.14;151950.28;5099626;28;20751;-76
2022/02/12 08:35:18;;;;;;;7.90;4.80;;;;;;;2.16;88.12;151920.69;5102130;28;20472;-76
2022/02/12 08:37:53;;;;;;;8.17;5.70;;;;;;;2.25;88.35;151943.84;5108162;27;20459;-76
2022/02/12 08:40:30;;;;;;;8.23;6.00;;;;;;;2.10;87.84;151905.25;5085985;28;20985;-76
2022/02/12 08:43:07;;;;;;;9.43;5.63;;;;;;;2.03;88.30;151888.56;5105874;28;20479;-76
2022/02/12 08:45:43;;;;;;;11.10;5.60;;;;;;;2.05;89.17;151893.69;5088479;28;20452;-76
2022/02/12 08:48:19;;;;;;;7.20;5.43;;;;;;;2.06;87.95;151896.28;5090467;28;20447;-77
2022/02/12 08:50:54;;;;;;;6.87;5.00;;;;;;;2.13;88.59;151912.97;5090992;28;20542;-77
2022/02/12 08:53:30;;;;;;;9.00;5.53;;;;;;;2.03;87.19;151887.25;5089882;28;20932;-76
2022/02/12 08:56:07;;;;;;;7.27;5.83;;;;;;;2.04;88.29;151891.09;5087910;27;20465;-76
2022/02/12 08:58:43;;;;;;;11.93;6.30;;;;;;;2.15;89.23;151919.41;5105376;28;20446;-77
2022/02/12 09:01:18;;;;;;;10.03;5.97;;;;;;;2.26;88.55;151946.41;5101380;28;20447;-77
2022/02/12 09:03:54;;;;;;;9.80;6.50;;;;;;;2.35;87.99;151970.84;5092860;28;20448;-76
2022/02/12 09:06:30;;;;;;;9.57;7.40;;;;;;;2.35;88.54;151969.56;5102689;28;20455;-76
2022/02/12 09:09:08;;;;;;;9.87;6.47;;;;;;;2.59;88.27;152030.00;5102354;28;20452;-76
2022/02/12 09:11:46;;;;;;;11.53;7.77;;;;;;;2.44;87.86;151993.97;5088781;28;20439;-76
2022/02/12 09:14:21;;;;;;;11.33;7.60;;;;;;;2.47;88.58;152000.41;5105279;28;20478;-77
2022/02/12 09:16:57;;;;;;;11.13;7.90;;;;;;;2.71;87.94;152060.84;5104197;28;20439;-76
2022/02/12 09:19:33;;;;;;;10.60;8.47;;;;;;;2.85;89.94;152096.88;5100975;28;20537;-77
2022/02/12 09:22:09;;;;;;;10.73;7.53;;;;;;;2.97;89.76;152127.75;5090857;28;20493;-77
2022/02/12 09:24:45;;;;;;;11.90;8.00;;;;;;;2.75;88.81;152072.47;5101662;28;20546;-77
2022/02/12 09:27:22;;;;;;;9.30;6.87;;;;;;;2.84;89.31;152094.28;5105943;28;20491;-77
2022/02/12 09:29:59;;;;;;;11.07;7.73;;;;;;;2.84;86.71;152094.28;5086086;28;20459;-77
2022/02/12 09:32:34;;;;;;;11.53;7.50;;;;;;;2.84;87.62;152094.28;5105408;27;20439;-77
2022/02/12 09:35:10;;;;;;;9.50;7.20;;;;;;;2.60;86.67;152032.53;5089374;28;20558;-77
2022/02/12 09:37:47;;;;;;;12.57;6.97;;;;;;;2.68;88.54;152053.13;5091309;28;20449;-77
2022/02/12 09:40:24;;;;;;;14.40;7.60;;;;;;;2.77;86.53;152077.59;5103807;28;20447;-77
2022/02/12 09:43:01;;;;;;;9.20;6.07;;;;;;;2.62;85.42;152037.72;5087481;27;20464;-77
2022/02/12 09:45:41;;;;;;;11.60;6.60;;;;;;;2.57;85.21;152024.88;5102252;28;20500;-77
2022/02/12 09:48:17;;;;;;;8.37;5.30;;;;;;;2.67;86.66;152050.56;5106373;28;20476;-77
2022/02/12 09:50:53;;;;;;;12.93;6.50;;;;;;;2.80;86.83;152085.31;5087120;28;20995;-77
2022/02/12 09:53:30;;;;;;;10.80;6.40;;;;;;;2.89;85.82;152107.16;5099799;28;20443;-77
2022/02/12 09:56:06;;;;;;;10.87;6.10;;;;;;;3.01;85.27;152138.06;5106642;28;20475;-77
2022/02/12 09:58:43;;;;;;;10.03;6.63;;;;;;;3.00;85.31;152135.47;5104110;28;20462;-77
2022/02/12 10:01:19;;;;;;;13.87;6.57;;;;;;;2.91;85.28;152113.56;5106135;28;20453;-75
2022/02/12 10:03:55;;;;;;;10.23;7.10;;;;;;;3.10;86.28;152161.19;5103856;28;20525;-77
2022/02/12 10:06:41;;;;;;;13.07;7.87;;;;;;;3.23;84.82;152194.63;5083416;28;20445;-77
2022/02/12 10:09:17;;;;;;;10.70;7.30;;;;;;;3.06;82.83;152152.22;5103075;28;20448;-77
2022/02/12 10:11:54;;;;;;;10.20;6.90;;;;;;;2.97;84.15;152127.75;5083645;28;21013;-77
2022/02/12 10:14:35;;;;;;;13.50;7.43;;;;;;;2.95;84.88;152123.91;5085664;28;20460;-76
2022/02/12 10:17:11;;;;;;;11.07;7.00;;;;;;;2.88;83.66;152104.59;5103919;28;20439;-77
2022/02/12 10:19:47;;;;;;;10.60;6.97;;;;;;;3.08;85.21;152156.06;5097388;28;20919;-77
2022/02/12 10:22:23;;;;;;;16.60;8.90;;;;;;;2.97;84.26;152127.75;5085931;28;20440;-77
2022/02/12 10:25:03;;;;;;;11.20;7.60;;;;;;;2.89;83.38;152107.16;5105323;28;20840;-76
2022/02/12 10:27:39;;;;;;;11.03;6.97;;;;;;;2.94;84.72;152120.00;5098242;28;20444;-76
2022/02/12 10:30:16;;;;;;;11.07;7.43;;;;;;;3.12;84.61;152166.38;5102602;27;20436;-77
2022/02/12 10:32:55;;;;;;;11.20;6.97;;;;;;;3.10;83.25;152161.19;5083401;28;20451;-76
2022/02/12 10:35:31;;;;;;;8.00;6.00;;;;;;;3.25;83.51;152198.53;5105132;28;20566;-77
2022/02/12 10:38:10;;;;;;;14.30;6.93;;;;;;;3.34;80.55;152222.97;5101513;28;20895;-77
2022/02/12 10:41:04;;;;;;;11.23;7.40;;;;;;;3.38;81.73;152233.28;5106443;28;20559;-77
2022/02/12 10:43:45;;;;;;;10.93;7.67;;;;;;;3.49;81.33;152261.59;5101284;27;20463;-77
2022/02/12 10:46:23;;;;;;;13.20;7.07;;;;;;;3.36;77.93;152226.84;5099957;28;20925;-77
2022/02/12 10:48:58;;;;;;;9.87;6.87;;;;;;;3.33;80.11;152220.41;5103685;28;20786;-77
2022/02/12 10:51:44;;;;;;;11.53;6.73;;;;;;;3.32;79.09;152217.81;5103062;28;20915;-77
2022/02/12 10:54:20;;;;;;;9.37;6.53;;;;;;;3.40;78.09;152238.41;5104862;28;20807;-77
2022/02/12 10:56:55;;;;;;;9.50;6.17;;;;;;;3.43;79.83;152246.16;5102792;28;20440;-77
2022/02/12 10:59:32;;;;;;;11.13;6.57;;;;;;;3.41;78.46;152241.00;5103221;28;20500;-77
2022/02/12 11:02:11;;;;;;;9.90;6.33;;;;;;;3.53;78.40;152271.88;5109377;28;20448;-76
2022/02/12 11:04:52;;;;;;;8.67;6.60;;;;;;;3.59;79.13;152286.03;5104539;28;20539;-77
2022/02/12 11:07:28;;;;;;;8.23;5.87;;;;;;;3.60;79.34;152288.66;5083494;28;20469;-77
2022/02/12 11:10:03;;;;;;;9.97;6.20;;;;;;;3.53;78.05;152271.88;5102753;28;20520;-77
2022/02/12 11:12:38;;;;;;;10.40;6.43;;;;;;;3.65;77.67;152301.50;5083528;28;20744;-77
2022/02/12 11:15:14;;;;;;;8.70;6.13;;;;;;;3.60;75.54;152289.88;5101274;28;20460;-77
2022/02/12 11:17:51;;;;;;;8.67;6.10;;;;;;;3.71;75.38;152315.69;5107591;28;20432;-77
2022/02/12 11:20:27;;;;;;;8.57;5.30;;;;;;;3.62;73.76;152293.78;5103348;28;20519;-77
2022/02/12 11:23:27;;;;;;;11.37;5.43;;;;;;;3.68;73.08;152310.50;5097885;28;20468;-76
2022/02/12 11:26:21;;;;;;;8.77;5.93;;;;;;;3.87;74.51;152356.81;5104908;28;20476;-77
2022/02/12 11:28:57;;;;;;;6.47;5.23;;;;;;;3.84;73.44;152349.16;5104726;28;20432;-77
2022/02/12 11:31:33;;;;;;;7.17;4.57;;;;;;;3.96;72.45;152380.03;5103757;28;20451;-77
2022/02/12 11:34:13;;;;;;;9.40;5.57;;;;;;;3.87;73.16;152356.81;5088285;28;20468;-77
2022/02/12 11:36:51;;;;;;;6.90;4.67;;;;;;;3.96;71.62;152380.03;5087283;28;20445;-76
2022/02/12 11:39:29;;;;;;;10.10;5.70;;;;;;;3.89;72.39;152363.25;5090111;28;20441;-76
2022/02/12 11:42:05;;;;;;;7.17;5.00;;;;;;;4.01;72.23;152392.91;5101713;28;20950;-77
2022/02/12 11:44:43;;;;;;;7.87;5.27;;;;;;;3.94;72.62;152376.19;5085831;28;20451;-77
2022/02/12 11:47:18;;;;;;;7.27;5.13;;;;;;;4.04;71.50;152400.63;5103493;28;20452;-77
2022/02/12 11:50:15;;;;;;;10.07;6.00;;;;;;;4.00;71.51;152391.59;5103146;28;20435;-76
2022/02/12 11:52:53;;;;;;;9.97;5.60;;;;;;;4.14;71.04;152426.38;5104634;28;20448;-76
2022/02/12 11:55:33;;;;;;;8.00;5.40;;;;;;;4.11;71.32;152419.94;5102849;28;20476;-76
2022/02/12 11:58:09;;;;;;;9.40;6.70;;;;;;;4.03;71.23;152398.03;5106289;28;20440;-77
2022/02/12 12:00:45;;;;;;;9.50;5.00;;;;;;;4.07;72.45;152409.66;5103915;28;20444;-77
2022/02/12 12:03:20;;;;;;;8.00;5.60;;;;;;;4.12;70.67;152421.25;5103197;28;20440;-76
2022/02/12 12:06:28;;;;;;;12.13;5.87;;;;;;;4.29;70.94;152466.31;5098627;28;20518;-76
2022/02/12 12:09:06;;;;;;;8.03;5.17;;;;;;;4.42;70.27;152497.25;5106736;28;20444;-76